sensor_id;sensor_type;location;lat;lon;timestamp;pressure;altitude;pressure_sealevel;temperature
49593;BMP280;35499;51.482;4.264;2023-08-06T00:00:20;100282.78;;;15.66
49593;BMP280;35499;51.482;4.264;2023-08-06T00:02:46;100288.78;;;15.67
49593;BMP280;35499;51.482;4.264;2023-08-06T00:05:11;100288.72;;;15.68
49593;BMP280;35499;51.482;4.264;2023-08-06T00:07:37;100295.56;;;15.69
49593;BMP280;35499;51.482;4.264;2023-08-06T00:10:02;100287.81;;;15.69
49593;BMP280;35499;51.482;4.264;2023-08-06T00:12:27;100286.16;;;15.68
49593;BMP280;35499;51.482;4.264;2023-08-06T00:14:53;100287.00;;;15.69
49593;BMP280;35499;51.482;4.264;2023-08-06T00:17:19;100286.91;;;15.70
49593;BMP280;35499;51.482;4.264;2023-08-06T00:19:44;100286.84;;;15.72
49593;BMP280;35499;51.482;4.264;2023-08-06T00:22:10;100289.38;;;15.73
49593;BMP280;35499;51.482;4.264;2023-08-06T00:24:35;100287.69;;;15.72
49593;BMP280;35499;51.482;4.264;2023-08-06T00:27:01;100290.34;;;15.71
49593;BMP280;35499;51.482;4.264;2023-08-06T00:29:27;100286.16;;;15.68
49593;BMP280;35499;51.482;4.264;2023-08-06T00:31:52;100284.47;;;15.67
49593;BMP280;35499;51.482;4.264;2023-08-06T00:34:17;100293.13;;;15.66
49593;BMP280;35499;51.482;4.264;2023-08-06T00:36:42;100287.09;;;15.66
49593;BMP280;35499;51.482;4.264;2023-08-06T00:39:08;100290.53;;;15.66
49593;BMP280;35499;51.482;4.264;2023-08-06T00:41:33;100298.31;;;15.66
49593;BMP280;35499;51.482;4.264;2023-08-06T00:43:58;100301.78;;;15.65
49593;BMP280;35499;51.482;4.264;2023-08-06T00:46:24;100291.44;;;15.65
49593;BMP280;35499;51.482;4.264;2023-08-06T00:48:50;100291.44;;;15.65
49593;BMP280;35499;51.482;4.264;2023-08-06T00:51:16;100291.38;;;15.67
49593;BMP280;35499;51.482;4.264;2023-08-06T00:53:42;100296.50;;;15.68
49593;BMP280;35499;51.482;4.264;2023-08-06T00:56:08;100295.56;;;15.69
49593;BMP280;35499;51.482;4.264;2023-08-06T00:58:35;100294.66;;;15.70
49593;BMP280;35499;51.482;4.264;2023-08-06T01:01:00;100294.56;;;15.73
49593;BMP280;35499;51.482;4.264;2023-08-06T01:03:26;100291.97;;;15.73
49593;BMP280;35499;51.482;4.264;2023-08-06T01:05:51;100295.41;;;15.74
49593;BMP280;35499;51.482;4.264;2023-08-06T01:08:30;100296.22;;;15.74
49593;BMP280;35499;51.482;4.264;2023-08-06T01:11:38;100304.91;;;15.73
49593;BMP280;35499;51.482;4.264;2023-08-06T01:14:17;100296.22;;;15.74
49593;BMP280;35499;51.482;4.264;2023-08-06T01:16:43;100299.59;;;15.76
49593;BMP280;35499;51.482;4.264;2023-08-06T01:19:18;100303.91;;;15.75
49593;BMP280;35499;51.482;4.264;2023-08-06T01:21:44;100301.28;;;15.77
49593;BMP280;35499;51.482;4.264;2023-08-06T01:24:09;100301.28;;;15.77
49593;BMP280;35499;51.482;4.264;2023-08-06T01:26:42;100306.47;;;15.77
49593;BMP280;35499;51.482;4.264;2023-08-06T01:29:15;100305.56;;;15.78
49593;BMP280;35499;51.482;4.264;2023-08-06T01:31:44;100302.97;;;15.78
49593;BMP280;35499;51.482;4.264;2023-08-06T01:34:33;100306.31;;;15.80
49593;BMP280;35499;51.482;4.264;2023-08-06T01:36:59;100308.00;;;15.81
49593;BMP280;35499;51.482;4.264;2023-08-06T01:39:25;100315.00;;;15.79
49593;BMP280;35499;51.482;4.264;2023-08-06T01:41:51;100311.63;;;15.77
49593;BMP280;35499;51.482;4.264;2023-08-06T01:44:16;100309.09;;;15.75
49593;BMP280;35499;51.482;4.264;2023-08-06T01:46:42;100316.88;;;15.75
49593;BMP280;35499;51.482;4.264;2023-08-06T01:49:07;100318.59;;;15.75
49593;BMP280;35499;51.482;4.264;2023-08-06T01:51:32;100319.50;;;15.74
49593;BMP280;35499;51.482;4.264;2023-08-06T01:53:58;100324.69;;;15.74
49593;BMP280;35499;51.482;4.264;2023-08-06T01:56:23;100322.09;;;15.74
49593;BMP280;35499;51.482;4.264;2023-08-06T01:58:48;100323.88;;;15.74
49593;BMP280;35499;51.482;4.264;2023-08-06T02:01:13;100332.44;;;15.74
49593;BMP280;35499;51.482;4.264;2023-08-06T02:03:39;100331.66;;;15.74
49593;BMP280;35499;51.482;4.264;2023-08-06T02:06:04;100336.81;;;15.74
49593;BMP280;35499;51.482;4.264;2023-08-06T02:08:29;100335.13;;;15.73
49593;BMP280;35499;51.482;4.264;2023-08-06T02:10:55;100337.72;;;15.73
49593;BMP280;35499;51.482;4.264;2023-08-06T02:13:20;100343.75;;;15.73
49593;BMP280;35499;51.482;4.264;2023-08-06T02:15:45;100343.81;;;15.72
49593;BMP280;35499;51.482;4.264;2023-08-06T02:18:14;100347.22;;;15.72
49593;BMP280;35499;51.482;4.264;2023-08-06T02:20:40;100351.56;;;15.72
49593;BMP280;35499;51.482;4.264;2023-08-06T02:23:05;100355.84;;;15.73
49593;BMP280;35499;51.482;4.264;2023-08-06T02:25:31;100355.00;;;15.72
49593;BMP280;35499;51.482;4.264;2023-08-06T02:27:56;100349.81;;;15.72
49593;BMP280;35499;51.482;4.264;2023-08-06T02:30:21;100358.47;;;15.71
49593;BMP280;35499;51.482;4.264;2023-08-06T02:32:46;100367.16;;;15.70
49593;BMP280;35499;51.482;4.264;2023-08-06T02:35:12;100362.81;;;15.71
49593;BMP280;35499;51.482;4.264;2023-08-06T02:37:37;100365.53;;;15.68
49593;BMP280;35499;51.482;4.264;2023-08-06T02:40:03;100364.72;;;15.67
49593;BMP280;35499;51.482;4.264;2023-08-06T02:42:28;100368.25;;;15.65
49593;BMP280;35499;51.482;4.264;2023-08-06T02:44:53;100370.91;;;15.63
49593;BMP280;35499;51.482;4.264;2023-08-06T02:47:21;100383.06;;;15.61
49593;BMP280;35499;51.482;4.264;2023-08-06T02:49:47;100384.09;;;15.57
49593;BMP280;35499;51.482;4.264;2023-08-06T02:52:12;100381.63;;;15.55
49593;BMP280;35499;51.482;4.264;2023-08-06T02:54:37;100383.47;;;15.53
49593;BMP280;35499;51.482;4.264;2023-08-06T02:57:04;100386.94;;;15.52
49593;BMP280;35499;51.482;4.264;2023-08-06T02:59:30;100393.91;;;15.50
49593;BMP280;35499;51.482;4.264;2023-08-06T03:01:55;100384.50;;;15.49
49593;BMP280;35499;51.482;4.264;2023-08-06T03:04:20;100389.72;;;15.47
49593;BMP280;35499;51.482;4.264;2023-08-06T03:06:45;100409.56;;;15.47
49593;BMP280;35499;51.482;4.264;2023-08-06T03:09:11;100409.56;;;15.47
49593;BMP280;35499;51.482;4.264;2023-08-06T03:11:36;100393.19;;;15.46
49593;BMP280;35499;51.482;4.264;2023-08-06T03:14:01;100407.78;;;15.49
49593;BMP280;35499;51.482;4.264;2023-08-06T03:16:26;100408.59;;;15.49
49593;BMP280;35499;51.482;4.264;2023-08-06T03:18:52;100414.56;;;15.51
49593;BMP280;35499;51.482;4.264;2023-08-06T03:21:17;100405.00;;;15.53
49593;BMP280;35499;51.482;4.264;2023-08-06T03:23:42;100406.56;;;15.57
49593;BMP280;35499;51.482;4.264;2023-08-06T03:26:08;100423.69;;;15.59
49593;BMP280;35499;51.482;4.264;2023-08-06T03:28:33;100421.00;;;15.62
49593;BMP280;35499;51.482;4.264;2023-08-06T03:31:04;100419.97;;;15.66
49593;BMP280;35499;51.482;4.264;2023-08-06T03:33:30;100438.88;;;15.68
49593;BMP280;35499;51.482;4.264;2023-08-06T03:35:55;100430.19;;;15.69
49593;BMP280;35499;51.482;4.264;2023-08-06T03:38:21;100427.50;;;15.72
49593;BMP280;35499;51.482;4.264;2023-08-06T03:40:47;100428.34;;;15.73
49593;BMP280;35499;51.482;4.264;2023-08-06T03:43:13;100422.31;;;15.72
49593;BMP280;35499;51.482;4.264;2023-08-06T03:45:38;100437.00;;;15.72
49593;BMP280;35499;51.482;4.264;2023-08-06T03:48:04;100445.72;;;15.69
49593;BMP280;35499;51.482;4.264;2023-08-06T03:50:29;100444.91;;;15.69
49593;BMP280;35499;51.482;4.264;2023-08-06T03:52:54;100439.88;;;15.64
49593;BMP280;35499;51.482;4.264;2023-08-06T03:55:20;100448.75;;;15.59
49593;BMP280;35499;51.482;4.264;2023-08-06T03:57:45;100454.09;;;15.55
49593;BMP280;35499;51.482;4.264;2023-08-06T04:00:11;100452.59;;;15.49
49593;BMP280;35499;51.482;4.264;2023-08-06T04:02:37;100470.84;;;15.46
49593;BMP280;35499;51.482;4.264;2023-08-06T04:05:02;100483.84;;;15.45
49593;BMP280;35499;51.482;4.264;2023-08-06T04:07:28;100481.44;;;15.40
49593;BMP280;35499;51.482;4.264;2023-08-06T04:09:54;100491.16;;;15.34
49593;BMP280;35499;51.482;4.264;2023-08-06T04:12:19;100502.66;;;15.27
49593;BMP280;35499;51.482;4.264;2023-08-06T04:14:45;100498.50;;;15.23
49593;BMP280;35499;51.482;4.264;2023-08-06T04:17:10;100502.94;;;15.20
49593;BMP280;35499;51.482;4.264;2023-08-06T04:19:35;100517.59;;;15.20
49593;BMP280;35499;51.482;4.264;2023-08-06T04:22:00;100521.13;;;15.19
49593;BMP280;35499;51.482;4.264;2023-08-06T04:24:26;100529.78;;;15.18
49593;BMP280;35499;51.482;4.264;2023-08-06T04:26:51;100526.28;;;15.19
49593;BMP280;35499;51.482;4.264;2023-08-06T04:29:16;100534.81;;;15.21
49593;BMP280;35499;51.482;4.264;2023-08-06T04:31:41;100539.91;;;15.23
49593;BMP280;35499;51.482;4.264;2023-08-06T04:34:07;100544.09;;;15.26
49593;BMP280;35499;51.482;4.264;2023-08-06T04:36:34;100535.31;;;15.30
49593;BMP280;35499;51.482;4.264;2023-08-06T04:38:59;100536.16;;;15.30
49593;BMP280;35499;51.482;4.264;2023-08-06T04:41:24;100553.38;;;15.31
49593;BMP280;35499;51.482;4.264;2023-08-06T04:43:49;100559.44;;;15.30
49593;BMP280;35499;51.482;4.264;2023-08-06T04:46:15;100557.75;;;15.29
49593;BMP280;35499;51.482;4.264;2023-08-06T04:48:40;100574.97;;;15.30
49593;BMP280;35499;51.482;4.264;2023-08-06T04:51:05;100570.69;;;15.29
49593;BMP280;35499;51.482;4.264;2023-08-06T04:53:31;100560.28;;;15.31
49593;BMP280;35499;51.482;4.264;2023-08-06T04:55:56;100570.69;;;15.29
49593;BMP280;35499;51.482;4.264;2023-08-06T04:58:21;100584.56;;;15.28
49593;BMP280;35499;51.482;4.264;2023-08-06T05:00:46;100581.91;;;15.30
49593;BMP280;35499;51.482;4.264;2023-08-06T05:03:12;100588.75;;;15.31
49593;BMP280;35499;51.482;4.264;2023-08-06T05:05:40;100582.75;;;15.30
49593;BMP280;35499;51.482;4.264;2023-08-06T05:08:05;100588.75;;;15.31
49593;BMP280;35499;51.482;4.264;2023-08-06T05:10:30;100595.75;;;15.29
49593;BMP280;35499;51.482;4.264;2023-08-06T05:12:56;100604.28;;;15.31
49593;BMP280;35499;51.482;4.264;2023-08-06T05:15:21;100602.50;;;15.33
49593;BMP280;35499;51.482;4.264;2023-08-06T05:17:46;100608.53;;;15.33
49593;BMP280;35499;51.482;4.264;2023-08-06T05:20:12;100609.47;;;15.31
49593;BMP280;35499;51.482;4.264;2023-08-06T05:22:37;100614.69;;;15.29
49593;BMP280;35499;51.482;4.264;2023-08-06T05:25:03;100617.25;;;15.29
49593;BMP280;35499;51.482;4.264;2023-08-06T05:27:28;100618.28;;;15.25
49593;BMP280;35499;51.482;4.264;2023-08-06T05:29:56;100631.22;;;15.25
49593;BMP280;35499;51.482;4.264;2023-08-06T05:32:22;100632.19;;;15.23
49593;BMP280;35499;51.482;4.264;2023-08-06T05:34:47;100630.44;;;15.23
49593;BMP280;35499;51.482;4.264;2023-08-06T05:37:13;100640.00;;;15.22
49593;BMP280;35499;51.482;4.264;2023-08-06T05:39:38;100645.16;;;15.22
49593;BMP280;35499;51.482;4.264;2023-08-06T05:42:03;100640.88;;;15.21
49593;BMP280;35499;51.482;4.264;2023-08-06T05:44:29;100647.81;;;15.20
49593;BMP280;35499;51.482;4.264;2023-08-06T05:46:54;100653.06;;;15.19
49593;BMP280;35499;51.482;4.264;2023-08-06T05:49:19;100663.50;;;15.16
49593;BMP280;35499;51.482;4.264;2023-08-06T05:51:44;100660.13;;;15.14
49593;BMP280;35499;51.482;4.264;2023-08-06T05:54:10;100678.25;;;15.14
49593;BMP280;35499;51.482;4.264;2023-08-06T05:56:35;100676.53;;;15.13
49593;BMP280;35499;51.482;4.264;2023-08-06T05:59:00;100671.41;;;15.11
49593;BMP280;35499;51.482;4.264;2023-08-06T06:01:26;100680.03;;;15.12
49593;BMP280;35499;51.482;4.264;2023-08-06T06:03:51;100683.41;;;15.14
49593;BMP280;35499;51.482;4.264;2023-08-06T06:06:16;100688.47;;;15.17
49593;BMP280;35499;51.482;4.264;2023-08-06T06:08:44;100684.97;;;15.18
49593;BMP280;35499;51.482;4.264;2023-08-06T06:11:09;100692.72;;;15.19
49593;BMP280;35499;51.482;4.264;2023-08-06T06:13:34;100700.38;;;15.21
49593;BMP280;35499;51.482;4.264;2023-08-06T06:16:00;100705.56;;;15.21
49593;BMP280;35499;51.482;4.264;2023-08-06T06:18:25;100706.38;;;15.22
49593;BMP280;35499;51.482;4.264;2023-08-06T06:20:50;100711.34;;;15.28
49593;BMP280;35499;51.482;4.264;2023-08-06T06:23:15;100717.28;;;15.30
49593;BMP280;35499;51.482;4.264;2023-08-06T06:25:48;100714.59;;;15.33
49593;BMP280;35499;51.482;4.264;2023-08-06T06:28:14;100719.66;;;15.36
49593;BMP280;35499;51.482;4.264;2023-08-06T06:30:41;100725.53;;;15.41
49593;BMP280;35499;51.482;4.264;2023-08-06T06:33:07;100722.72;;;15.47
49593;BMP280;35499;51.482;4.264;2023-08-06T06:35:32;100718.34;;;15.49
49593;BMP280;35499;51.482;4.264;2023-08-06T06:37:57;100725.19;;;15.50
49593;BMP280;35499;51.482;4.264;2023-08-06T06:40:23;100730.28;;;15.53
49593;BMP280;35499;51.482;4.264;2023-08-06T06:42:48;100732.75;;;15.56
49593;BMP280;35499;51.482;4.264;2023-08-06T06:45:13;100740.44;;;15.58
49593;BMP280;35499;51.482;4.264;2023-08-06T06:47:38;100742.88;;;15.61
49593;BMP280;35499;51.482;4.264;2023-08-06T06:50:04;100743.56;;;15.66
49593;BMP280;35499;51.482;4.264;2023-08-06T06:52:30;100740.94;;;15.68
49593;BMP280;35499;51.482;4.264;2023-08-06T06:54:55;100750.22;;;15.73
49593;BMP280;35499;51.482;4.264;2023-08-06T06:57:20;100750.91;;;15.78
49593;BMP280;35499;51.482;4.264;2023-08-06T06:59:45;100756.75;;;15.83
49593;BMP280;35499;51.482;4.264;2023-08-06T07:02:11;100760.03;;;15.88
49593;BMP280;35499;51.482;4.264;2023-08-06T07:04:36;100759.81;;;15.93
49593;BMP280;35499;51.482;4.264;2023-08-06T07:07:01;100769.16;;;15.99
49593;BMP280;35499;51.482;4.264;2023-08-06T07:09:27;100768.91;;;16.05
49593;BMP280;35499;51.482;4.264;2023-08-06T07:11:52;100760.94;;;16.09
49593;BMP280;35499;51.482;4.264;2023-08-06T07:14:17;100772.06;;;16.12
49593;BMP280;35499;51.482;4.264;2023-08-06T07:16:43;100770.25;;;16.14
49593;BMP280;35499;51.482;4.264;2023-08-06T07:19:08;100771.09;;;16.15
49593;BMP280;35499;51.482;4.264;2023-08-06T07:21:33;100777.88;;;16.19
49593;BMP280;35499;51.482;4.264;2023-08-06T07:23:58;100782.81;;;16.25
49593;BMP280;35499;51.482;4.264;2023-08-06T07:26:25;100779.13;;;16.30
49593;BMP280;35499;51.482;4.264;2023-08-06T07:28:50;100775.28;;;16.40
49593;BMP280;35499;51.482;4.264;2023-08-06T07:31:15;100788.94;;;16.45
49593;BMP280;35499;51.482;4.264;2023-08-06T07:33:40;100775.69;;;16.52
49593;BMP280;35499;51.482;4.264;2023-08-06T07:36:11;100776.44;;;16.54
49593;BMP280;35499;51.482;4.264;2023-08-06T07:38:36;100773.72;;;16.58
49593;BMP280;35499;51.482;4.264;2023-08-06T07:41:02;100778.03;;;16.58
49593;BMP280;35499;51.482;4.264;2023-08-06T07:43:27;100784.09;;;16.58
49593;BMP280;35499;51.482;4.264;2023-08-06T07:45:53;100776.22;;;16.60
49593;BMP280;35499;51.482;4.264;2023-08-06T07:48:18;100776.13;;;16.63
49593;BMP280;35499;51.482;4.264;2023-08-06T07:50:43;100768.91;;;16.69
49593;BMP280;35499;51.482;4.264;2023-08-06T07:53:15;100779.25;;;16.70
49593;BMP280;35499;51.482;4.264;2023-08-06T07:55:40;100771.47;;;16.70
49593;BMP280;35499;51.482;4.264;2023-08-06T07:58:05;100773.81;;;16.76
49593;BMP280;35499;51.482;4.264;2023-08-06T08:00:31;100763.88;;;16.87
49593;BMP280;35499;51.482;4.264;2023-08-06T08:02:56;100762.47;;;17.00
49593;BMP280;35499;51.482;4.264;2023-08-06T08:05:21;100768.63;;;17.18
49593;BMP280;35499;51.482;4.264;2023-08-06T08:07:47;100767.84;;;17.36
49593;BMP280;35499;51.482;4.264;2023-08-06T08:10:12;100764.16;;;17.41
49593;BMP280;35499;51.482;4.264;2023-08-06T08:12:37;100764.22;;;17.39
49593;BMP280;35499;51.482;4.264;2023-08-06T08:15:03;100760.13;;;17.34
49593;BMP280;35499;51.482;4.264;2023-08-06T08:17:28;100758.13;;;17.21
49593;BMP280;35499;51.482;4.264;2023-08-06T08:19:54;100759.00;;;17.01
49593;BMP280;35499;51.482;4.264;2023-08-06T08:22:19;100760.63;;;16.82
49593;BMP280;35499;51.482;4.264;2023-08-06T08:24:44;100757.72;;;16.68
49593;BMP280;35499;51.482;4.264;2023-08-06T08:27:09;100755.47;;;16.60
49593;BMP280;35499;51.482;4.264;2023-08-06T08:29:35;100762.59;;;16.55
49593;BMP280;35499;51.482;4.264;2023-08-06T08:32:00;100747.41;;;16.46
49593;BMP280;35499;51.482;4.264;2023-08-06T08:34:25;100750.22;;;16.40
49593;BMP280;35499;51.482;4.264;2023-08-06T08:36:50;100753.03;;;16.34
49593;BMP280;35499;51.482;4.264;2023-08-06T08:39:16;100753.03;;;16.34
49593;BMP280;35499;51.482;4.264;2023-08-06T08:41:41;100753.63;;;16.42
49593;BMP280;35499;51.482;4.264;2023-08-06T08:44:10;100756.63;;;16.53
49593;BMP280;35499;51.482;4.264;2023-08-06T08:46:36;100753.06;;;16.55
49593;BMP280;35499;51.482;4.264;2023-08-06T08:49:03;100742.31;;;16.64
49593;BMP280;35499;51.482;4.264;2023-08-06T08:51:29;100748.06;;;16.72
49593;BMP280;35499;51.482;4.264;2023-08-06T08:53:55;100746.59;;;16.86
49593;BMP280;35499;51.482;4.264;2023-08-06T08:56:24;100744.28;;;17.01
49593;BMP280;35499;51.482;4.264;2023-08-06T08:58:50;100752.03;;;17.22
49593;BMP280;35499;51.482;4.264;2023-08-06T09:04:33;100764.22;;;17.39
49593;BMP280;35499;51.482;4.264;2023-08-06T09:07:00;100761.63;;;17.39
49593;BMP280;35499;51.482;4.264;2023-08-06T09:09:28;100772.00;;;17.39
49593;BMP280;35499;51.482;4.264;2023-08-06T09:12:00;100786.81;;;17.38
49593;BMP280;35499;51.482;4.264;2023-08-06T09:14:26;100793.81;;;17.36
49593;BMP280;35499;51.482;4.264;2023-08-06T09:16:51;100792.97;;;17.35
49593;BMP280;35499;51.482;4.264;2023-08-06T09:19:17;100795.50;;;17.37
49593;BMP280;35499;51.482;4.264;2023-08-06T09:21:43;100807.59;;;17.38
49593;BMP280;35499;51.482;4.264;2023-08-06T09:24:09;100814.44;;;17.38
49593;BMP280;35499;51.482;4.264;2023-08-06T09:26:36;100809.25;;;17.38
49593;BMP280;35499;51.482;4.264;2023-08-06T09:29:05;100818.94;;;17.35
49593;BMP280;35499;51.482;4.264;2023-08-06T09:31:54;100823.34;;;17.33
49593;BMP280;35499;51.482;4.264;2023-08-06T09:34:20;100827.56;;;17.36
49593;BMP280;35499;51.482;4.264;2023-08-06T09:36:48;100826.59;;;17.38
49593;BMP280;35499;51.482;4.264;2023-08-06T09:39:17;100841.91;;;17.44
49593;BMP280;35499;51.482;4.264;2023-08-06T09:41:43;100845.16;;;17.49
49593;BMP280;35499;51.482;4.264;2023-08-06T09:44:21;100848.09;;;17.61
49593;BMP280;35499;51.482;4.264;2023-08-06T09:46:49;100851.09;;;17.72
49593;BMP280;35499;51.482;4.264;2023-08-06T09:49:15;100851.75;;;17.76
49593;BMP280;35499;51.482;4.264;2023-08-06T09:51:41;100858.84;;;17.73
49593;BMP280;35499;51.482;4.264;2023-08-06T09:54:06;100870.50;;;17.63
49593;BMP280;35499;51.482;4.264;2023-08-06T09:56:33;100873.16;;;17.42
49593;BMP280;35499;51.482;4.264;2023-08-06T09:59:04;100878.69;;;17.34
49593;BMP280;35499;51.482;4.264;2023-08-06T10:01:31;100882.13;;;17.34
49593;BMP280;35499;51.482;4.264;2023-08-06T10:03:57;100882.22;;;17.33
49593;BMP280;35499;51.482;4.264;2023-08-06T10:06:24;100884.03;;;17.31
49593;BMP280;35499;51.482;4.264;2023-08-06T10:08:49;100886.56;;;17.32
49593;BMP280;35499;51.482;4.264;2023-08-06T10:11:17;100898.09;;;17.25
49593;BMP280;35499;51.482;4.264;2023-08-06T10:13:42;100913.38;;;17.12
49593;BMP280;35499;51.482;4.264;2023-08-06T10:16:09;100925.28;;;16.95
49593;BMP280;35499;51.482;4.264;2023-08-06T10:18:37;100920.63;;;16.80
49593;BMP280;35499;51.482;4.264;2023-08-06T10:21:03;100929.03;;;16.64
49593;BMP280;35499;51.482;4.264;2023-08-06T10:23:36;100934.06;;;16.46
49593;BMP280;35499;51.482;4.264;2023-08-06T10:26:03;100933.50;;;16.38
49593;BMP280;35499;51.482;4.264;2023-08-06T10:28:38;100928.31;;;16.38
49593;BMP280;35499;51.482;4.264;2023-08-06T10:31:05;100928.22;;;16.40
49593;BMP280;35499;51.482;4.264;2023-08-06T10:36:08;100929.66;;;16.48
49593;BMP280;35499;51.482;4.264;2023-08-06T10:38:35;100932.25;;;16.48
49593;BMP280;35499;51.482;4.264;2023-08-06T10:41:03;100929.50;;;16.52
49593;BMP280;35499;51.482;4.264;2023-08-06T10:45:55;100924.59;;;16.67
49593;BMP280;35499;51.482;4.264;2023-08-06T10:50:59;100923.06;;;16.84
49593;BMP280;35499;51.482;4.264;2023-08-06T10:53:25;100907.25;;;16.90
49593;BMP280;35499;51.482;4.264;2023-08-06T10:55:50;100920.28;;;16.89
49593;BMP280;35499;51.482;4.264;2023-08-06T10:58:15;100922.34;;;16.81
49593;BMP280;35499;51.482;4.264;2023-08-06T11:00:42;100923.72;;;16.68
49593;BMP280;35499;51.482;4.264;2023-08-06T11:03:08;100941.28;;;16.61
49593;BMP280;35499;51.482;4.264;2023-08-06T11:05:33;100932.94;;;16.53
49593;BMP280;35499;51.482;4.264;2023-08-06T11:07:59;100933.03;;;16.50
49593;BMP280;35499;51.482;4.264;2023-08-06T11:10:24;100927.16;;;16.45
49593;BMP280;35499;51.482;4.264;2023-08-06T11:12:49;100936.19;;;16.35
49593;BMP280;35499;51.482;4.264;2023-08-06T11:15:14;100932.22;;;16.26
49593;BMP280;35499;51.482;4.264;2023-08-06T11:17:41;100926.41;;;16.19
49593;BMP280;35499;51.482;4.264;2023-08-06T11:20:07;100938.75;;;16.13
49593;BMP280;35499;51.482;4.264;2023-08-06T11:22:32;100925.78;;;16.13
49593;BMP280;35499;51.482;4.264;2023-08-06T11:24:58;100929.91;;;16.18
49593;BMP280;35499;51.482;4.264;2023-08-06T11:27:26;100920.00;;;16.29
49593;BMP280;35499;51.482;4.264;2023-08-06T11:29:52;100915.19;;;16.43
49593;BMP280;35499;51.482;4.264;2023-08-06T11:32:17;100904.28;;;16.56
49593;BMP280;35499;51.482;4.264;2023-08-06T11:34:43;100907.69;;;16.58
49593;BMP280;35499;51.482;4.264;2023-08-06T11:37:08;100893.03;;;16.57
49593;BMP280;35499;51.482;4.264;2023-08-06T11:39:36;100910.28;;;16.58
49593;BMP280;35499;51.482;4.264;2023-08-06T11:42:06;100906.50;;;16.66
49593;BMP280;35499;51.482;4.264;2023-08-06T11:44:34;100907.84;;;16.76
49593;BMP280;35499;51.482;4.264;2023-08-06T11:47:01;100913.75;;;16.79
49593;BMP280;35499;51.482;4.264;2023-08-06T11:49:48;100913.75;;;16.79
49593;BMP280;35499;51.482;4.264;2023-08-06T11:52:23;100917.28;;;16.78
49593;BMP280;35499;51.482;4.264;2023-08-06T11:55:06;100930.91;;;16.83
49593;BMP280;35499;51.482;4.264;2023-08-06T11:57:33;100932.50;;;16.87
49593;BMP280;35499;51.482;4.264;2023-08-06T12:00:06;100938.75;;;16.82
49593;BMP280;35499;51.482;4.264;2023-08-06T12:02:33;100951.38;;;16.68
49593;BMP280;35499;51.482;4.264;2023-08-06T12:05:10;100939.69;;;16.57
49593;BMP280;35499;51.482;4.264;2023-08-06T12:07:40;100947.81;;;16.48
49593;BMP280;35499;51.482;4.264;2023-08-06T12:10:06;100945.16;;;16.49
49593;BMP280;35499;51.482;4.264;2023-08-06T12:12:33;100951.94;;;16.53
49593;BMP280;35499;51.482;4.264;2023-08-06T12:14:58;100952.66;;;16.57
49593;BMP280;35499;51.482;4.264;2023-08-06T12:17:24;100957.00;;;16.56
49593;BMP280;35499;51.482;4.264;2023-08-06T12:19:49;100961.34;;;16.56
49593;BMP280;35499;51.482;4.264;2023-08-06T12:22:15;100970.00;;;16.55
49593;BMP280;35499;51.482;4.264;2023-08-06T12:24:42;100975.84;;;16.61
49593;BMP280;35499;51.482;4.264;2023-08-06T12:27:08;100974.78;;;16.66
49593;BMP280;35499;51.482;4.264;2023-08-06T12:29:33;100962.59;;;16.68
49593;BMP280;35499;51.482;4.264;2023-08-06T12:31:58;100963.22;;;16.75
49593;BMP280;35499;51.482;4.264;2023-08-06T12:34:24;100953.13;;;16.90
49593;BMP280;35499;51.482;4.264;2023-08-06T12:36:49;100962.78;;;17.09
49593;BMP280;35499;51.482;4.264;2023-08-06T12:39:14;100960.19;;;17.30
49593;BMP280;35499;51.482;4.264;2023-08-06T12:41:39;100967.22;;;17.49
49593;BMP280;35499;51.482;4.264;2023-08-06T12:44:05;100958.22;;;17.57
49593;BMP280;35499;51.482;4.264;2023-08-06T12:46:30;100965.53;;;17.48
49593;BMP280;35499;51.482;4.264;2023-08-06T12:48:56;100994.03;;;17.28
49593;BMP280;35499;51.482;4.264;2023-08-06T12:51:23;100990.78;;;17.01
49593;BMP280;35499;51.482;4.264;2023-08-06T12:53:48;100995.09;;;16.78
49593;BMP280;35499;51.482;4.264;2023-08-06T12:56:13;100995.00;;;16.57
49593;BMP280;35499;51.482;4.264;2023-08-06T12:58:38;101013.78;;;16.40
49593;BMP280;35499;51.482;4.264;2023-08-06T13:01:05;101021.03;;;16.30
49593;BMP280;35499;51.482;4.264;2023-08-06T13:03:30;101026.22;;;16.30
49593;BMP280;35499;51.482;4.264;2023-08-06T13:05:55;101033.34;;;16.24
49593;BMP280;35499;51.482;4.264;2023-08-06T13:08:21;101026.31;;;16.04
49593;BMP280;35499;51.482;4.264;2023-08-06T13:10:46;101019.13;;;15.85
49593;BMP280;35499;51.482;4.264;2023-08-06T13:13:11;101033.44;;;15.69
49593;BMP280;35499;51.482;4.264;2023-08-06T13:15:37;101037.13;;;15.62
49593;BMP280;35499;51.482;4.264;2023-08-06T13:18:02;101052.84;;;15.57
49593;BMP280;35499;51.482;4.264;2023-08-06T13:20:30;101075.44;;;15.52
49593;BMP280;35499;51.482;4.264;2023-08-06T13:22:55;101062.34;;;15.56
49593;BMP280;35499;51.482;4.264;2023-08-06T13:25:20;101094.28;;;15.57
49593;BMP280;35499;51.482;4.264;2023-08-06T13:27:46;101081.34;;;15.57
49593;BMP280;35499;51.482;4.264;2023-08-06T13:30:12;101090.69;;;15.60
49593;BMP280;35499;51.482;4.264;2023-08-06T13:32:37;101072.53;;;15.62
49593;BMP280;35499;51.482;4.264;2023-08-06T13:35:04;101094.09;;;15.62
49593;BMP280;35499;51.482;4.264;2023-08-06T13:37:29;101102.63;;;15.66
49593;BMP280;35499;51.482;4.264;2023-08-06T13:39:55;101098.19;;;15.69
49593;BMP280;35499;51.482;4.264;2023-08-06T13:42:20;101095.50;;;15.72
49593;BMP280;35499;51.482;4.264;2023-08-06T13:44:46;101098.88;;;15.74
49593;BMP280;35499;51.482;4.264;2023-08-06T13:47:12;101119.53;;;15.77
49593;BMP280;35499;51.482;4.264;2023-08-06T13:49:37;101128.03;;;15.80
49593;BMP280;35499;51.482;4.264;2023-08-06T13:52:02;101138.38;;;15.82
49593;BMP280;35499;51.482;4.264;2023-08-06T13:54:27;101146.94;;;15.84
49593;BMP280;35499;51.482;4.264;2023-08-06T13:56:53;101152.13;;;15.84
49593;BMP280;35499;51.482;4.264;2023-08-06T13:59:18;101150.50;;;15.80
49593;BMP280;35499;51.482;4.264;2023-08-06T14:01:45;101154.19;;;15.73